sensor_id;sensor_type;location;lat;lon;timestamp;P1;durP1;ratioP1;P2;durP2;ratioP2
57832;SDS011;43667;53.036;6.740;2024-01-30T00:01:45;40.78;;;30.08;;
57832;SDS011;43667;53.036;6.740;2024-01-30T00:04:11;44.58;;;30.75;;
57832;SDS011;43667;53.036;6.740;2024-01-30T00:06:37;36.58;;;29.58;;
57832;SDS011;43667;53.036;6.740;2024-01-30T00:09:03;37.28;;;28.75;;
57832;SDS011;43667;53.036;6.740;2024-01-30T00:11:30;38.30;;;28.40;;
57832;SDS011;43667;53.036;6.740;2024-01-30T00:13:56;41.45;;;28.35;;
57832;SDS011;43667;53.036;6.740;2024-01-30T00:16:23;43.58;;;29.95;;
57832;SDS011;43667;53.036;6.740;2024-01-30T00:18:49;34.38;;;26.67;;
57832;SDS011;43667;53.036;6.740;2024-01-30T00:21:16;32.38;;;26.27;;
57832;SDS011;43667;53.036;6.740;2024-01-30T00:23:42;35.40;;;28.23;;
57832;SDS011;43667;53.036;6.740;2024-01-30T00:26:08;35.30;;;27.45;;
57832;SDS011;43667;53.036;6.740;2024-01-30T00:28:34;38.38;;;29.20;;
57832;SDS011;43667;53.036;6.740;2024-01-30T00:31:00;37.63;;;29.05;;
57832;SDS011;43667;53.036;6.740;2024-01-30T00:33:26;36.78;;;28.45;;
57832;SDS011;43667;53.036;6.740;2024-01-30T00:35:52;37.33;;;28.27;;
57832;SDS011;43667;53.036;6.740;2024-01-30T00:38:18;35.65;;;28.98;;
57832;SDS011;43667;53.036;6.740;2024-01-30T00:40:44;35.35;;;28.67;;
57832;SDS011;43667;53.036;6.740;2024-01-30T00:43:10;38.03;;;29.98;;
57832;SDS011;43667;53.036;6.740;2024-01-30T00:45:36;41.25;;;29.95;;
57832;SDS011;43667;53.036;6.740;2024-01-30T00:48:02;36.95;;;29.52;;
57832;SDS011;43667;53.036;6.740;2024-01-30T00:50:29;33.95;;;27.38;;
57832;SDS011;43667;53.036;6.740;2024-01-30T00:52:55;38.13;;;29.20;;
57832;SDS011;43667;53.036;6.740;2024-01-30T00:55:21;41.10;;;31.20;;
57832;SDS011;43667;53.036;6.740;2024-01-30T00:57:47;39.55;;;30.55;;
57832;SDS011;43667;53.036;6.740;2024-01-30T01:00:13;38.58;;;29.63;;
57832;SDS011;43667;53.036;6.740;2024-01-30T01:02:42;44.25;;;30.20;;
57832;SDS011;43667;53.036;6.740;2024-01-30T01:05:08;44.38;;;31.45;;
57832;SDS011;43667;53.036;6.740;2024-01-30T01:07:34;39.22;;;29.92;;
57832;SDS011;43667;53.036;6.740;2024-01-30T01:10:00;44.65;;;31.13;;
57832;SDS011;43667;53.036;6.740;2024-01-30T01:12:26;39.33;;;30.05;;
57832;SDS011;43667;53.036;6.740;2024-01-30T01:14:52;41.97;;;30.65;;
57832;SDS011;43667;53.036;6.740;2024-01-30T01:17:18;35.75;;;29.60;;
57832;SDS011;43667;53.036;6.740;2024-01-30T01:19:44;35.45;;;29.58;;
57832;SDS011;43667;53.036;6.740;2024-01-30T01:22:10;38.38;;;30.08;;
57832;SDS011;43667;53.036;6.740;2024-01-30T01:24:36;42.97;;;31.10;;
57832;SDS011;43667;53.036;6.740;2024-01-30T01:27:02;43.10;;;30.15;;
57832;SDS011;43667;53.036;6.740;2024-01-30T01:29:28;42.95;;;32.25;;
57832;SDS011;43667;53.036;6.740;2024-01-30T01:31:55;43.55;;;32.00;;
57832;SDS011;43667;53.036;6.740;2024-01-30T01:34:21;38.47;;;30.10;;
57832;SDS011;43667;53.036;6.740;2024-01-30T01:36:48;44.00;;;31.58;;
57832;SDS011;43667;53.036;6.740;2024-01-30T01:39:14;44.80;;;31.13;;
57832;SDS011;43667;53.036;6.740;2024-01-30T01:41:40;38.00;;;29.67;;
57832;SDS011;43667;53.036;6.740;2024-01-30T01:44:07;40.95;;;30.58;;
57832;SDS011;43667;53.036;6.740;2024-01-30T01:46:33;42.92;;;31.75;;
57832;SDS011;43667;53.036;6.740;2024-01-30T01:49:00;40.80;;;31.40;;
57832;SDS011;43667;53.036;6.740;2024-01-30T01:51:27;44.75;;;33.03;;
57832;SDS011;43667;53.036;6.740;2024-01-30T01:53:53;48.33;;;34.55;;
57832;SDS011;43667;53.036;6.740;2024-01-30T01:56:19;52.00;;;34.22;;
57832;SDS011;43667;53.036;6.740;2024-01-30T01:58:46;55.05;;;35.97;;
57832;SDS011;43667;53.036;6.740;2024-01-30T02:01:12;52.70;;;34.15;;
57832;SDS011;43667;53.036;6.740;2024-01-30T02:03:39;48.30;;;34.38;;
57832;SDS011;43667;53.036;6.740;2024-01-30T02:06:05;58.38;;;36.85;;
57832;SDS011;43667;53.036;6.740;2024-01-30T02:08:31;45.70;;;33.50;;
57832;SDS011;43667;53.036;6.740;2024-01-30T02:10:58;49.30;;;35.40;;
57832;SDS011;43667;53.036;6.740;2024-01-30T02:13:24;50.38;;;37.03;;
57832;SDS011;43667;53.036;6.740;2024-01-30T02:15:53;50.80;;;36.15;;
57832;SDS011;43667;53.036;6.740;2024-01-30T02:18:19;46.15;;;33.75;;
57832;SDS011;43667;53.036;6.740;2024-01-30T02:20:49;41.90;;;31.60;;
57832;SDS011;43667;53.036;6.740;2024-01-30T02:23:16;54.67;;;36.92;;
57832;SDS011;43667;53.036;6.740;2024-01-30T02:25:42;46.53;;;33.85;;
57832;SDS011;43667;53.036;6.740;2024-01-30T02:28:12;47.63;;;35.53;;
57832;SDS011;43667;53.036;6.740;2024-01-30T02:30:44;49.80;;;34.92;;
57832;SDS011;43667;53.036;6.740;2024-01-30T02:33:10;45.83;;;33.80;;
57832;SDS011;43667;53.036;6.740;2024-01-30T02:35:36;42.83;;;32.25;;
57832;SDS011;43667;53.036;6.740;2024-01-30T02:38:02;40.38;;;29.65;;
57832;SDS011;43667;53.036;6.740;2024-01-30T02:40:28;46.85;;;33.45;;
57832;SDS011;43667;53.036;6.740;2024-01-30T02:42:54;37.90;;;29.90;;
57832;SDS011;43667;53.036;6.740;2024-01-30T02:45:20;43.53;;;32.13;;
57832;SDS011;43667;53.036;6.740;2024-01-30T02:47:46;38.67;;;29.98;;
57832;SDS011;43667;53.036;6.740;2024-01-30T02:50:12;38.03;;;29.40;;
57832;SDS011;43667;53.036;6.740;2024-01-30T02:52:40;42.50;;;31.67;;
57832;SDS011;43667;53.036;6.740;2024-01-30T02:55:06;40.28;;;30.35;;
57832;SDS011;43667;53.036;6.740;2024-01-30T02:57:32;36.95;;;30.38;;
57832;SDS011;43667;53.036;6.740;2024-01-30T02:59:59;35.85;;;27.85;;
57832;SDS011;43667;53.036;6.740;2024-01-30T03:02:25;37.40;;;29.27;;
57832;SDS011;43667;53.036;6.740;2024-01-30T03:04:51;40.70;;;29.08;;
57832;SDS011;43667;53.036;6.740;2024-01-30T03:07:17;31.77;;;27.67;;
57832;SDS011;43667;53.036;6.740;2024-01-30T03:09:43;42.95;;;31.27;;
57832;SDS011;43667;53.036;6.740;2024-01-30T03:12:09;35.05;;;26.95;;
57832;SDS011;43667;53.036;6.740;2024-01-30T03:14:35;33.10;;;26.80;;
57832;SDS011;43667;53.036;6.740;2024-01-30T03:17:02;33.05;;;26.25;;
57832;SDS011;43667;53.036;6.740;2024-01-30T03:19:28;31.25;;;27.55;;
57832;SDS011;43667;53.036;6.740;2024-01-30T03:21:54;34.33;;;28.30;;
57832;SDS011;43667;53.036;6.740;2024-01-30T03:24:20;33.58;;;25.92;;
57832;SDS011;43667;53.036;6.740;2024-01-30T03:26:46;37.17;;;27.88;;
57832;SDS011;43667;53.036;6.740;2024-01-30T03:29:12;32.63;;;26.10;;
57832;SDS011;43667;53.036;6.740;2024-01-30T03:31:38;35.75;;;27.00;;
57832;SDS011;43667;53.036;6.740;2024-01-30T03:34:04;34.72;;;26.35;;
57832;SDS011;43667;53.036;6.740;2024-01-30T03:36:30;30.38;;;24.77;;
57832;SDS011;43667;53.036;6.740;2024-01-30T03:38:58;31.33;;;24.60;;
57832;SDS011;43667;53.036;6.740;2024-01-30T03:41:24;32.55;;;24.45;;
57832;SDS011;43667;53.036;6.740;2024-01-30T03:43:50;32.50;;;25.27;;
57832;SDS011;43667;53.036;6.740;2024-01-30T03:46:16;32.63;;;24.58;;
57832;SDS011;43667;53.036;6.740;2024-01-30T03:48:42;25.83;;;23.05;;
57832;SDS011;43667;53.036;6.740;2024-01-30T03:51:08;27.90;;;20.98;;
57832;SDS011;43667;53.036;6.740;2024-01-30T03:53:39;32.63;;;24.42;;
57832;SDS011;43667;53.036;6.740;2024-01-30T03:56:06;27.05;;;22.60;;
57832;SDS011;43667;53.036;6.740;2024-01-30T03:58:32;32.75;;;23.30;;
57832;SDS011;43667;53.036;6.740;2024-01-30T04:00:58;32.55;;;22.63;;
57832;SDS011;43667;53.036;6.740;2024-01-30T04:03:24;30.20;;;22.75;;
57832;SDS011;43667;53.036;6.740;2024-01-30T04:05:53;26.48;;;23.17;;
57832;SDS011;43667;53.036;6.740;2024-01-30T04:08:19;25.98;;;20.65;;
57832;SDS011;43667;53.036;6.740;2024-01-30T04:10:46;30.77;;;23.23;;
57832;SDS011;43667;53.036;6.740;2024-01-30T04:13:12;30.70;;;21.63;;
57832;SDS011;43667;53.036;6.740;2024-01-30T04:15:39;25.17;;;20.13;;
57832;SDS011;43667;53.036;6.740;2024-01-30T04:18:05;22.80;;;19.27;;
57832;SDS011;43667;53.036;6.740;2024-01-30T04:20:31;22.23;;;19.83;;
57832;SDS011;43667;53.036;6.740;2024-01-30T04:22:57;23.15;;;19.45;;
57832;SDS011;43667;53.036;6.740;2024-01-30T04:25:23;23.20;;;19.58;;
57832;SDS011;43667;53.036;6.740;2024-01-30T04:27:49;22.23;;;19.23;;
57832;SDS011;43667;53.036;6.740;2024-01-30T04:30:15;23.42;;;17.40;;
57832;SDS011;43667;53.036;6.740;2024-01-30T04:32:42;23.60;;;18.13;;
57832;SDS011;43667;53.036;6.740;2024-01-30T04:35:08;19.13;;;16.95;;
57832;SDS011;43667;53.036;6.740;2024-01-30T04:37:34;20.30;;;18.00;;
57832;SDS011;43667;53.036;6.740;2024-01-30T04:40:00;21.65;;;17.17;;
57832;SDS011;43667;53.036;6.740;2024-01-30T04:42:29;20.08;;;17.23;;
57832;SDS011;43667;53.036;6.740;2024-01-30T04:44:55;19.58;;;17.48;;
57832;SDS011;43667;53.036;6.740;2024-01-30T04:47:21;19.08;;;15.48;;
57832;SDS011;43667;53.036;6.740;2024-01-30T04:49:47;19.17;;;16.23;;
57832;SDS011;43667;53.036;6.740;2024-01-30T04:52:13;20.27;;;16.92;;
57832;SDS011;43667;53.036;6.740;2024-01-30T04:54:39;18.88;;;16.05;;
57832;SDS011;43667;53.036;6.740;2024-01-30T04:57:05;18.60;;;16.65;;
57832;SDS011;43667;53.036;6.740;2024-01-30T04:59:34;18.88;;;14.93;;
57832;SDS011;43667;53.036;6.740;2024-01-30T05:02:01;19.73;;;16.52;;
57832;SDS011;43667;53.036;6.740;2024-01-30T05:04:27;19.85;;;15.98;;
57832;SDS011;43667;53.036;6.740;2024-01-30T05:06:53;23.05;;;16.02;;
57832;SDS011;43667;53.036;6.740;2024-01-30T05:09:19;19.50;;;16.13;;
57832;SDS011;43667;53.036;6.740;2024-01-30T05:11:46;18.35;;;15.25;;
57832;SDS011;43667;53.036;6.740;2024-01-30T05:14:12;19.80;;;15.90;;
57832;SDS011;43667;53.036;6.740;2024-01-30T05:16:40;19.48;;;15.57;;
57832;SDS011;43667;53.036;6.740;2024-01-30T05:19:06;17.40;;;13.98;;
57832;SDS011;43667;53.036;6.740;2024-01-30T05:21:32;18.13;;;15.02;;
57832;SDS011;43667;53.036;6.740;2024-01-30T05:23:59;18.70;;;15.75;;
57832;SDS011;43667;53.036;6.740;2024-01-30T05:26:25;17.33;;;15.50;;
57832;SDS011;43667;53.036;6.740;2024-01-30T05:28:51;19.40;;;15.30;;
57832;SDS011;43667;53.036;6.740;2024-01-30T05:31:17;18.13;;;14.63;;
57832;SDS011;43667;53.036;6.740;2024-01-30T05:33:43;22.70;;;16.33;;
57832;SDS011;43667;53.036;6.740;2024-01-30T05:36:11;18.80;;;15.35;;
57832;SDS011;43667;53.036;6.740;2024-01-30T05:38:38;19.50;;;15.05;;
57832;SDS011;43667;53.036;6.740;2024-01-30T05:41:04;18.38;;;15.77;;
57832;SDS011;43667;53.036;6.740;2024-01-30T05:43:30;20.23;;;15.30;;
57832;SDS011;43667;53.036;6.740;2024-01-30T05:45:56;18.67;;;15.45;;
57832;SDS011;43667;53.036;6.740;2024-01-30T05:48:23;21.45;;;15.07;;
57832;SDS011;43667;53.036;6.740;2024-01-30T05:50:49;19.90;;;14.95;;
57832;SDS011;43667;53.036;6.740;2024-01-30T05:53:15;19.15;;;14.80;;
57832;SDS011;43667;53.036;6.740;2024-01-30T05:55:41;19.10;;;15.68;;
57832;SDS011;43667;53.036;6.740;2024-01-30T05:58:07;18.10;;;14.77;;
57832;SDS011;43667;53.036;6.740;2024-01-30T06:00:33;17.48;;;14.25;;
57832;SDS011;43667;53.036;6.740;2024-01-30T06:02:59;18.73;;;14.07;;
57832;SDS011;43667;53.036;6.740;2024-01-30T06:05:25;19.13;;;14.05;;
57832;SDS011;43667;53.036;6.740;2024-01-30T06:07:50;16.40;;;14.20;;
57832;SDS011;43667;53.036;6.740;2024-01-30T06:10:16;16.85;;;14.85;;
57832;SDS011;43667;53.036;6.740;2024-01-30T06:12:43;19.88;;;14.60;;
57832;SDS011;43667;53.036;6.740;2024-01-30T06:15:09;17.30;;;14.25;;
57832;SDS011;43667;53.036;6.740;2024-01-30T06:17:35;16.60;;;14.20;;
57832;SDS011;43667;53.036;6.740;2024-01-30T06:20:01;19.33;;;14.30;;
57832;SDS011;43667;53.036;6.740;2024-01-30T06:22:27;17.42;;;14.23;;
57832;SDS011;43667;53.036;6.740;2024-01-30T06:24:53;17.02;;;13.90;;
57832;SDS011;43667;53.036;6.740;2024-01-30T06:27:19;15.65;;;13.45;;
57832;SDS011;43667;53.036;6.740;2024-01-30T06:29:45;17.70;;;14.00;;
57832;SDS011;43667;53.036;6.740;2024-01-30T06:32:11;16.50;;;14.00;;
57832;SDS011;43667;53.036;6.740;2024-01-30T06:34:37;18.05;;;14.30;;
57832;SDS011;43667;53.036;6.740;2024-01-30T06:37:05;15.75;;;14.02;;
57832;SDS011;43667;53.036;6.740;2024-01-30T06:39:31;15.98;;;14.10;;
57832;SDS011;43667;53.036;6.740;2024-01-30T06:41:57;17.20;;;14.25;;
57832;SDS011;43667;53.036;6.740;2024-01-30T06:44:23;18.48;;;14.40;;
57832;SDS011;43667;53.036;6.740;2024-01-30T06:46:49;15.10;;;13.30;;
57832;SDS011;43667;53.036;6.740;2024-01-30T06:49:15;14.77;;;13.23;;
57832;SDS011;43667;53.036;6.740;2024-01-30T06:51:41;18.98;;;14.07;;
57832;SDS011;43667;53.036;6.740;2024-01-30T06:54:07;15.55;;;13.50;;
57832;SDS011;43667;53.036;6.740;2024-01-30T06:56:33;15.45;;;13.25;;
57832;SDS011;43667;53.036;6.740;2024-01-30T06:58:59;18.48;;;13.65;;
57832;SDS011;43667;53.036;6.740;2024-01-30T07:01:29;23.63;;;15.00;;
57832;SDS011;43667;53.036;6.740;2024-01-30T07:03:55;19.98;;;13.77;;
57832;SDS011;43667;53.036;6.740;2024-01-30T07:06:21;17.60;;;13.63;;
57832;SDS011;43667;53.036;6.740;2024-01-30T07:08:48;16.65;;;13.75;;
57832;SDS011;43667;53.036;6.740;2024-01-30T07:11:21;15.95;;;13.63;;
57832;SDS011;43667;53.036;6.740;2024-01-30T07:13:47;15.85;;;14.07;;
57832;SDS011;43667;53.036;6.740;2024-01-30T07:16:14;18.83;;;13.82;;
57832;SDS011;43667;53.036;6.740;2024-01-30T07:18:40;16.05;;;13.25;;
57832;SDS011;43667;53.036;6.740;2024-01-30T07:21:06;16.70;;;13.93;;
57832;SDS011;43667;53.036;6.740;2024-01-30T07:23:32;19.73;;;13.82;;
57832;SDS011;43667;53.036;6.740;2024-01-30T07:26:00;15.27;;;13.25;;
57832;SDS011;43667;53.036;6.740;2024-01-30T07:28:26;17.88;;;13.75;;
57832;SDS011;43667;53.036;6.740;2024-01-30T07:30:52;15.20;;;13.52;;
57832;SDS011;43667;53.036;6.740;2024-01-30T07:33:18;15.65;;;13.32;;
57832;SDS011;43667;53.036;6.740;2024-01-30T07:35:45;16.67;;;13.95;;
57832;SDS011;43667;53.036;6.740;2024-01-30T07:38:11;18.20;;;14.25;;
57832;SDS011;43667;53.036;6.740;2024-01-30T07:40:37;17.48;;;13.98;;
57832;SDS011;43667;53.036;6.740;2024-01-30T07:43:03;17.48;;;14.90;;
57832;SDS011;43667;53.036;6.740;2024-01-30T07:45:29;19.33;;;15.82;;
57832;SDS011;43667;53.036;6.740;2024-01-30T07:47:58;19.13;;;14.60;;
57832;SDS011;43667;53.036;6.740;2024-01-30T07:50:27;18.27;;;14.63;;
57832;SDS011;43667;53.036;6.740;2024-01-30T07:52:55;17.25;;;14.63;;
57832;SDS011;43667;53.036;6.740;2024-01-30T07:55:21;22.73;;;14.77;;
57832;SDS011;43667;53.036;6.740;2024-01-30T07:57:51;17.45;;;15.05;;
57832;SDS011;43667;53.036;6.740;2024-01-30T08:00:18;17.85;;;14.55;;
57832;SDS011;43667;53.036;6.740;2024-01-30T08:02:54;18.15;;;14.73;;
57832;SDS011;43667;53.036;6.740;2024-01-30T08:05:20;16.10;;;14.38;;
57832;SDS011;43667;53.036;6.740;2024-01-30T08:07:48;17.55;;;14.15;;
57832;SDS011;43667;53.036;6.740;2024-01-30T08:10:14;16.27;;;14.52;;
57832;SDS011;43667;53.036;6.740;2024-01-30T08:12:41;17.60;;;14.27;;
57832;SDS011;43667;53.036;6.740;2024-01-30T08:15:07;18.48;;;14.18;;
57832;SDS011;43667;53.036;6.740;2024-01-30T08:17:33;19.38;;;14.57;;
57832;SDS011;43667;53.036;6.740;2024-01-30T08:19:59;17.40;;;14.77;;
57832;SDS011;43667;53.036;6.740;2024-01-30T08:22:25;16.83;;;13.80;;
57832;SDS011;43667;53.036;6.740;2024-01-30T08:24:51;17.73;;;14.38;;
57832;SDS011;43667;53.036;6.740;2024-01-30T08:27:17;20.35;;;14.75;;
57832;SDS011;43667;53.036;6.740;2024-01-30T08:29:43;18.70;;;14.52;;
57832;SDS011;43667;53.036;6.740;2024-01-30T08:32:09;19.13;;;14.00;;
57832;SDS011;43667;53.036;6.740;2024-01-30T08:34:35;16.92;;;13.98;;
57832;SDS011;43667;53.036;6.740;2024-01-30T08:37:02;15.90;;;13.68;;
57832;SDS011;43667;53.036;6.740;2024-01-30T08:39:28;15.00;;;13.15;;
57832;SDS011;43667;53.036;6.740;2024-01-30T08:41:55;18.65;;;14.07;;
57832;SDS011;43667;53.036;6.740;2024-01-30T08:44:21;19.35;;;14.35;;
57832;SDS011;43667;53.036;6.740;2024-01-30T08:46:47;21.00;;;13.40;;
57832;SDS011;43667;53.036;6.740;2024-01-30T08:49:16;19.02;;;13.25;;
57832;SDS011;43667;53.036;6.740;2024-01-30T08:51:42;16.48;;;13.48;;
57832;SDS011;43667;53.036;6.740;2024-01-30T08:54:08;14.20;;;12.68;;
57832;SDS011;43667;53.036;6.740;2024-01-30T08:56:34;15.50;;;12.68;;
57832;SDS011;43667;53.036;6.740;2024-01-30T08:59:00;16.25;;;13.05;;
57832;SDS011;43667;53.036;6.740;2024-01-30T09:01:26;16.70;;;12.93;;
57832;SDS011;43667;53.036;6.740;2024-01-30T09:03:52;16.25;;;12.32;;
57832;SDS011;43667;53.036;6.740;2024-01-30T09:06:18;16.42;;;12.35;;
57832;SDS011;43667;53.036;6.740;2024-01-30T09:08:44;14.90;;;12.13;;
57832;SDS011;43667;53.036;6.740;2024-01-30T09:11:14;13.82;;;12.30;;
57832;SDS011;43667;53.036;6.740;2024-01-30T09:13:40;14.68;;;12.85;;
57832;SDS011;43667;53.036;6.740;2024-01-30T09:16:06;14.57;;;11.82;;
57832;SDS011;43667;53.036;6.740;2024-01-30T09:18:33;18.80;;;13.43;;
57832;SDS011;43667;53.036;6.740;2024-01-30T09:20:59;16.63;;;11.27;;
57832;SDS011;43667;53.036;6.740;2024-01-30T09:23:26;16.50;;;12.18;;
57832;SDS011;43667;53.036;6.740;2024-01-30T09:25:53;13.55;;;11.85;;
57832;SDS011;43667;53.036;6.740;2024-01-30T09:28:19;15.57;;;11.40;;
57832;SDS011;43667;53.036;6.740;2024-01-30T09:30:45;14.32;;;11.75;;
57832;SDS011;43667;53.036;6.740;2024-01-30T09:33:11;14.43;;;11.75;;
57832;SDS011;43667;53.036;6.740;2024-01-30T09:35:37;17.08;;;12.45;;
57832;SDS011;43667;53.036;6.740;2024-01-30T09:38:03;16.75;;;11.70;;
57832;SDS011;43667;53.036;6.740;2024-01-30T09:40:29;15.20;;;11.15;;
57832;SDS011;43667;53.036;6.740;2024-01-30T09:42:55;13.07;;;11.25;;
57832;SDS011;43667;53.036;6.740;2024-01-30T09:45:24;12.38;;;11.02;;
57832;SDS011;43667;53.036;6.740;2024-01-30T09:47:51;20.85;;;12.27;;
57832;SDS011;43667;53.036;6.740;2024-01-30T09:50:18;17.95;;;10.73;;
57832;SDS011;43667;53.036;6.740;2024-01-30T09:52:44;14.60;;;11.02;;
57832;SDS011;43667;53.036;6.740;2024-01-30T09:55:11;14.65;;;10.80;;
57832;SDS011;43667;53.036;6.740;2024-01-30T09:57:37;15.35;;;11.13;;
57832;SDS011;43667;53.036;6.740;2024-01-30T10:00:03;16.15;;;11.07;;
57832;SDS011;43667;53.036;6.740;2024-01-30T10:02:31;17.77;;;10.90;;
57832;SDS011;43667;53.036;6.740;2024-01-30T10:04:57;14.98;;;10.55;;
57832;SDS011;43667;53.036;6.740;2024-01-30T10:07:24;16.42;;;10.50;;
57832;SDS011;43667;53.036;6.740;2024-01-30T10:09:50;14.75;;;10.82;;
57832;SDS011;43667;53.036;6.740;2024-01-30T10:12:16;13.00;;;9.90;;
57832;SDS011;43667;53.036;6.740;2024-01-30T10:14:42;12.82;;;10.00;;
57832;SDS011;43667;53.036;6.740;2024-01-30T10:17:08;13.25;;;10.88;;
57832;SDS011;43667;53.036;6.740;2024-01-30T10:19:41;17.48;;;11.10;;
57832;SDS011;43667;53.036;6.740;2024-01-30T10:22:07;15.13;;;9.87;;
57832;SDS011;43667;53.036;6.740;2024-01-30T10:24:35;16.58;;;10.80;;
57832;SDS011;43667;53.036;6.740;2024-01-30T10:27:01;15.27;;;10.30;;
57832;SDS011;43667;53.036;6.740;2024-01-30T10:29:28;13.38;;;10.70;;
57832;SDS011;43667;53.036;6.740;2024-01-30T10:32:01;11.98;;;9.98;;
57832;SDS011;43667;53.036;6.740;2024-01-30T10:34:27;16.63;;;10.90;;
57832;SDS011;43667;53.036;6.740;2024-01-30T10:36:58;17.42;;;10.52;;
57832;SDS011;43667;53.036;6.740;2024-01-30T10:39:26;15.38;;;10.85;;
57832;SDS011;43667;53.036;6.740;2024-01-30T10:41:56;15.05;;;10.27;;
57832;SDS011;43667;53.036;6.740;2024-01-30T10:44:25;15.90;;;10.60;;
57832;SDS011;43667;53.036;6.740;2024-01-30T10:46:56;12.40;;;10.45;;
57832;SDS011;43667;53.036;6.740;2024-01-30T10:49:24;16.20;;;11.10;;
57832;SDS011;43667;53.036;6.740;2024-01-30T10:51:50;12.30;;;10.02;;
57832;SDS011;43667;53.036;6.740;2024-01-30T10:54:17;16.73;;;10.90;;
57832;SDS011;43667;53.036;6.740;2024-01-30T10:56:43;14.85;;;10.25;;
57832;SDS011;43667;53.036;6.740;2024-01-30T10:59:10;14.05;;;10.57;;
57832;SDS011;43667;53.036;6.740;2024-01-30T11:01:36;14.43;;;10.80;;
57832;SDS011;43667;53.036;6.740;2024-01-30T11:04:02;17.58;;;10.68;;
57832;SDS011;43667;53.036;6.740;2024-01-30T11:06:29;15.90;;;10.52;;
57832;SDS011;43667;53.036;6.740;2024-01-30T11:09:05;17.10;;;11.60;;
57832;SDS011;43667;53.036;6.740;2024-01-30T11:11:51;16.80;;;10.88;;
57832;SDS011;43667;53.036;6.740;2024-01-30T11:14:27;17.52;;;11.75;;
57832;SDS011;43667;53.036;6.740;2024-01-30T11:16:53;16.35;;;10.52;;
57832;SDS011;43667;53.036;6.740;2024-01-30T11:19:22;21.40;;;11.48;;
57832;SDS011;43667;53.036;6.740;2024-01-30T11:21:54;17.93;;;10.63;;
57832;SDS011;43667;53.036;6.740;2024-01-30T11:24:22;15.43;;;11.07;;
57832;SDS011;43667;53.036;6.740;2024-01-30T11:26:58;15.85;;;10.85;;
57832;SDS011;43667;53.036;6.740;2024-01-30T11:29:24;13.60;;;10.68;;
57832;SDS011;43667;53.036;6.740;2024-01-30T11:31:51;16.02;;;10.20;;
57832;SDS011;43667;53.036;6.740;2024-01-30T11:34:18;16.20;;;10.93;;
57832;SDS011;43667;53.036;6.740;2024-01-30T11:36:44;17.23;;;10.65;;
57832;SDS011;43667;53.036;6.740;2024-01-30T11:39:11;16.88;;;11.35;;
57832;SDS011;43667;53.036;6.740;2024-01-30T11:41:37;14.20;;;10.82;;
57832;SDS011;43667;53.036;6.740;2024-01-30T11:44:04;17.48;;;11.48;;
57832;SDS011;43667;53.036;6.740;2024-01-30T11:46:30;16.27;;;11.30;;
57832;SDS011;43667;53.036;6.740;2024-01-30T11:48:56;14.50;;;12.05;;
57832;SDS011;43667;53.036;6.740;2024-01-30T11:51:22;15.88;;;11.60;;
57832;SDS011;43667;53.036;6.740;2024-01-30T11:53:51;22.67;;;12.77;;
57832;SDS011;43667;53.036;6.740;2024-01-30T11:56:17;18.85;;;12.10;;
57832;SDS011;43667;53.036;6.740;2024-01-30T11:58:43;16.83;;;11.80;;
57832;SDS011;43667;53.036;6.740;2024-01-30T12:01:10;20.98;;;11.60;;
57832;SDS011;43667;53.036;6.740;2024-01-30T12:03:36;16.05;;;12.10;;
57832;SDS011;43667;53.036;6.740;2024-01-30T12:06:02;16.33;;;12.63;;
57832;SDS011;43667;53.036;6.740;2024-01-30T12:08:28;18.88;;;12.32;;
57832;SDS011;43667;53.036;6.740;2024-01-30T12:10:55;16.58;;;11.95;;
57832;SDS011;43667;53.036;6.740;2024-01-30T12:13:22;19.90;;;12.82;;
57832;SDS011;43667;53.036;6.740;2024-01-30T12:15:48;19.88;;;12.35;;
57832;SDS011;43667;53.036;6.740;2024-01-30T12:18:14;21.50;;;12.68;;
57832;SDS011;43667;53.036;6.740;2024-01-30T12:20:44;22.58;;;13.43;;
57832;SDS011;43667;53.036;6.740;2024-01-30T12:23:11;20.73;;;12.07;;
57832;SDS011;43667;53.036;6.740;2024-01-30T12:25:37;18.25;;;11.20;;
57832;SDS011;43667;53.036;6.740;2024-01-30T12:28:03;24.88;;;11.57;;
57832;SDS011;43667;53.036;6.740;2024-01-30T12:30:30;24.73;;;10.15;;
57832;SDS011;43667;53.036;6.740;2024-01-30T12:32:56;23.23;;;9.43;;
57832;SDS011;43667;53.036;6.740;2024-01-30T12:35:23;19.98;;;8.80;;
57832;SDS011;43667;53.036;6.740;2024-01-30T12:37:49;16.20;;;6.82;;
57832;SDS011;43667;53.036;6.740;2024-01-30T12:40:15;14.88;;;7.00;;
57832;SDS011;43667;53.036;6.740;2024-01-30T12:42:42;17.77;;;7.50;;
57832;SDS011;43667;53.036;6.740;2024-01-30T12:45:08;16.65;;;6.45;;
57832;SDS011;43667;53.036;6.740;2024-01-30T12:47:34;15.93;;;5.47;;
57832;SDS011;43667;53.036;6.740;2024-01-30T12:50:00;10.85;;;4.30;;
57832;SDS011;43667;53.036;6.740;2024-01-30T12:52:26;9.23;;;4.43;;
57832;SDS011;43667;53.036;6.740;2024-01-30T12:54:53;16.02;;;4.75;;
57832;SDS011;43667;53.036;6.740;2024-01-30T12:57:19;10.25;;;3.72;;
57832;SDS011;43667;53.036;6.740;2024-01-30T12:59:45;12.68;;;4.20;;
57832;SDS011;43667;53.036;6.740;2024-01-30T13:02:12;8.85;;;2.47;;
57832;SDS011;43667;53.036;6.740;2024-01-30T13:04:38;5.13;;;1.48;;
57832;SDS011;43667;53.036;6.740;2024-01-30T13:07:05;5.03;;;1.35;;
57832;SDS011;43667;53.036;6.740;2024-01-30T13:09:31;4.30;;;1.27;;
57832;SDS011;43667;53.036;6.740;2024-01-30T13:11:57;2.95;;;0.55;;
57832;SDS011;43667;53.036;6.740;2024-01-30T13:14:23;5.43;;;0.70;;
57832;SDS011;43667;53.036;6.740;2024-01-30T13:16:50;3.50;;;0.70;;
57832;SDS011;43667;53.036;6.740;2024-01-30T13:19:16;2.92;;;0.80;;
57832;SDS011;43667;53.036;6.740;2024-01-30T13:21:42;3.50;;;0.60;;
57832;SDS011;43667;53.036;6.740;2024-01-30T13:24:08;3.40;;;0.60;;
57832;SDS011;43667;53.036;6.740;2024-01-30T13:26:34;3.03;;;0.82;;
57832;SDS011;43667;53.036;6.740;2024-01-30T13:29:00;2.25;;;0.50;;
57832;SDS011;43667;53.036;6.740;2024-01-30T13:31:26;2.58;;;0.70;;
57832;SDS011;43667;53.036;6.740;2024-01-30T13:33:56;3.45;;;0.57;;
57832;SDS011;43667;53.036;6.740;2024-01-30T13:36:22;2.15;;;0.47;;
57832;SDS011;43667;53.036;6.740;2024-01-30T13:38:48;5.93;;;0.80;;
57832;SDS011;43667;53.036;6.740;2024-01-30T13:41:14;2.20;;;0.70;;
57832;SDS011;43667;53.036;6.740;2024-01-30T13:43:41;2.92;;;1.00;;
57832;SDS011;43667;53.036;6.740;2024-01-30T13:46:07;4.47;;;0.80;;
57832;SDS011;43667;53.036;6.740;2024-01-30T13:48:33;2.33;;;0.60;;
57832;SDS011;43667;53.036;6.740;2024-01-30T13:50:59;1.45;;;0.55;;
57832;SDS011;43667;53.036;6.740;2024-01-30T13:53:25;2.08;;;0.60;;
57832;SDS011;43667;53.036;6.740;2024-01-30T13:55:51;2.53;;;0.70;;
57832;SDS011;43667;53.036;6.740;2024-01-30T13:58:17;2.53;;;0.73;;
57832;SDS011;43667;53.036;6.740;2024-01-30T14:00:43;3.47;;;0.80;;
57832;SDS011;43667;53.036;6.740;2024-01-30T14:03:10;2.55;;;0.70;;
57832;SDS011;43667;53.036;6.740;2024-01-30T14:05:36;1.80;;;0.40;;
57832;SDS011;43667;53.036;6.740;2024-01-30T14:08:02;2.88;;;0.63;;
57832;SDS011;43667;53.036;6.740;2024-01-30T14:10:28;1.33;;;0.45;;
57832;SDS011;43667;53.036;6.740;2024-01-30T14:12:54;3.38;;;0.70;;
57832;SDS011;43667;53.036;6.740;2024-01-30T14:15:21;2.63;;;0.63;;
57832;SDS011;43667;53.036;6.740;2024-01-30T14:17:47;3.45;;;0.80;;
57832;SDS011;43667;53.036;6.740;2024-01-30T14:20:14;3.50;;;0.90;;